Batesville, Mississippi
Current Conditions -  °F | °C
As of 3:55 AM on Saturday 01 Nov 2014 (Local Time) from KUOX Reporting Station
Clear Clear  
Wind Chill: 29°   Ceiling: Unl
Heat Index: 36°   Visibility: 10mi
Dew Point: 23°   Wind: 8mph
Humidity: 60%   Direction: 330°NNW
Pressure: 30.33"   Gusts: NA
Location:  34.32°N, 89.95°W
Report Text: KUOX 010855Z AUTO 33007KT 10SM CLR 02/M05 A3033 RMK AO2 PWINO PNO
Loading
Personal Weather Stations






























Interactive Weather Map
Tropical Storm Tracking
New forecast layout! Learn more

10-Day Weather Forecast

Advertisements
Track Severe Weather on mobile